Time;durP1;ratioP1;P1;durP2;ratioP2;P2;SDS_P1;SDS_P2;PMS_P1;PMS_P2;Temp;Humidity;BMP_temperature;BMP_pressure;BME280_temperature;BME280_humidity;BME280_pressure;Samples;Min_cycle;Max_cycle;Signal;HPM_P1;HPM_P2
2023/09/18 00:00:51;;;;;;;61.78;28.35;;;16.00;99.90;;;;;;5018153;28;20057;-68
2023/09/18 00:03:19;;;;;;;121.95;49.42;;;16.10;99.90;;;;;;5018107;28;20180;-68
2023/09/18 00:05:45;;;;;;;86.68;38.13;;;16.10;99.90;;;;;;5033860;28;20056;-68
2023/09/18 00:08:11;;;;;;;92.10;44.05;;;16.00;99.90;;;;;;5034632;28;20045;-68
2023/09/18 00:10:37;;;;;;;65.60;34.03;;;15.90;99.90;;;;;;5034163;28;20099;-68
2023/09/18 00:13:03;;;;;;;93.53;41.88;;;16.00;99.90;;;;;;5033876;28;20138;-68
2023/09/18 00:15:28;;;;;;;52.10;30.67;;;16.00;99.90;;;;;;5035428;28;20049;-68
2023/09/18 00:17:55;;;;;;;74.93;38.13;;;16.00;99.90;;;;;;5033760;28;20046;-68
2023/09/18 00:20:26;;;;;;;59.40;35.08;;;16.00;99.90;;;;;;5034160;28;20045;-67
2023/09/18 00:22:55;;;;;;;43.50;28.38;;;16.00;99.90;;;;;;5034158;28;20053;-68
2023/09/18 00:25:22;;;;;;;50.63;35.47;;;16.00;99.90;;;;;;5033442;28;20116;-68
2023/09/18 00:27:48;;;;;;;32.10;24.92;;;15.90;99.90;;;;;;5033981;28;20508;-68
2023/09/18 00:30:14;;;;;;;40.83;28.67;;;15.90;99.90;;;;;;5034067;28;20041;-68
2023/09/18 00:32:39;;;;;;;40.13;27.23;;;16.10;99.90;;;;;;5016790;28;20072;-68
2023/09/18 00:35:05;;;;;;;39.47;27.42;;;15.90;99.90;;;;;;5034673;28;20037;-68
2023/09/18 00:37:31;;;;;;;40.90;29.45;;;15.90;99.90;;;;;;5033853;28;20074;-68
2023/09/18 00:39:57;;;;;;;38.85;27.00;;;16.00;99.90;;;;;;5033436;28;20390;-68
2023/09/18 00:42:22;;;;;;;45.83;28.00;;;15.90;99.90;;;;;;5033706;28;20054;-68
2023/09/18 00:44:50;;;;;;;72.57;37.85;;;15.90;99.90;;;;;;5034330;28;20045;-68
2023/09/18 00:47:16;;;;;;;53.20;29.90;;;15.90;99.90;;;;;;5033007;28;20045;-68
2023/09/18 00:49:47;;;;;;;55.55;33.00;;;16.00;99.90;;;;;;5033941;28;20033;-68
2023/09/18 00:52:14;;;;;;;57.88;33.58;;;15.90;99.90;;;;;;5033374;28;20044;-68
2023/09/18 00:54:42;;;;;;;33.90;26.02;;;16.00;99.90;;;;;;5032298;28;20049;-67
2023/09/18 00:57:08;;;;;;;38.08;27.52;;;16.00;99.90;;;;;;5033379;28;20049;-68
2023/09/18 00:59:34;;;;;;;50.63;31.02;;;16.00;99.90;;;;;;5017115;28;20128;-68
2023/09/18 01:02:00;;;;;;;46.80;31.00;;;16.00;99.90;;;;;;5036177;28;20467;-68
2023/09/18 01:04:28;;;;;;;54.45;32.42;;;16.10;99.90;;;;;;5036734;28;20053;-68
2023/09/18 01:06:56;;;;;;;43.53;29.63;;;15.90;99.90;;;;;;5037406;28;20121;-68
2023/09/18 01:09:22;;;;;;;47.80;30.75;;;16.00;99.90;;;;;;5034344;28;20036;-68
2023/09/18 01:11:57;;;;;;;41.47;29.80;;;16.00;99.90;;;;;;5022098;28;20046;-67
2023/09/18 01:14:31;;;;;;;39.05;29.35;;;16.00;99.90;;;;;;5016151;28;20501;-68
2023/09/18 01:16:58;;;;;;;40.05;29.67;;;16.20;99.90;;;;;;5017212;28;20116;-68
2023/09/18 01:19:45;;;;;;;32.88;27.85;;;16.10;99.90;;;;;;5016793;28;20047;-67
2023/09/18 01:22:16;;;;;;;35.40;27.63;;;16.10;99.90;;;;;;5016017;28;20056;-68
2023/09/18 01:24:43;;;;;;;30.60;24.52;;;15.90;99.90;;;;;;5016733;28;20049;-68
2023/09/18 01:27:18;;;;;;;32.58;24.25;;;16.10;99.90;;;;;;5016494;28;20060;-68
2023/09/18 01:29:46;;;;;;;34.45;27.35;;;16.00;99.90;;;;;;5016094;28;20041;-68
2023/09/18 01:32:12;;;;;;;33.75;25.17;;;16.00;99.90;;;;;;5034350;28;20534;-67
2023/09/18 01:34:45;;;;;;;30.83;25.15;;;16.10;99.90;;;;;;5034264;28;20121;-68
2023/09/18 01:37:12;;;;;;;34.13;25.60;;;16.10;99.90;;;;;;5015511;28;20037;-67
2023/09/18 01:39:39;;;;;;;31.60;23.08;;;16.10;99.90;;;;;;5041759;28;20076;-67
2023/09/18 01:42:06;;;;;;;31.92;24.70;;;16.00;99.90;;;;;;4997008;28;20084;-68
2023/09/18 01:44:33;;;;;;;26.98;21.85;;;15.90;99.90;;;;;;5028735;28;20049;-67
2023/09/18 01:47:01;;;;;;;33.08;24.45;;;16.00;99.90;;;;;;4996956;28;20046;-68
2023/09/18 01:49:37;;;;;;;30.85;24.55;;;16.10;99.90;;;;;;4995820;28;20049;-67
2023/09/18 01:52:05;;;;;;;32.20;25.13;;;16.00;99.90;;;;;;5012997;28;20138;-67
2023/09/18 01:54:31;;;;;;;29.95;21.35;;;16.10;99.90;;;;;;5016339;28;20398;-67
2023/09/18 01:56:57;;;;;;;28.52;23.02;;;16.10;99.90;;;;;;5015234;28;20049;-67
2023/09/18 01:59:24;;;;;;;31.77;24.92;;;16.00;99.90;;;;;;5016345;28;20041;-68
2023/09/18 02:01:50;;;;;;;27.65;22.08;;;16.10;99.90;;;;;;5029926;28;20091;-67
2023/09/18 02:04:17;;;;;;;30.50;24.75;;;16.10;99.90;;;;;;5015073;28;20046;-68
2023/09/18 02:06:43;;;;;;;32.03;24.30;;;16.10;99.90;;;;;;5033263;28;20120;-67
2023/09/18 02:09:09;;;;;;;32.30;24.30;;;16.10;99.90;;;;;;5032478;28;20124;-67
2023/09/18 02:11:38;;;;;;;30.15;24.33;;;16.10;99.90;;;;;;5031540;28;20435;-68
2023/09/18 02:14:05;;;;;;;30.98;24.02;;;16.20;99.90;;;;;;5016081;28;20034;-67
2023/09/18 02:16:41;;;;;;;31.17;23.55;;;16.20;99.90;;;;;;5032204;28;20056;-67
2023/09/18 02:19:13;;;;;;;28.08;21.77;;;16.20;99.90;;;;;;5032645;28;20033;-67
2023/09/18 02:21:42;;;;;;;30.40;23.50;;;16.20;99.90;;;;;;5032155;28;20069;-68
2023/09/18 02:24:07;;;;;;;31.15;24.48;;;16.30;99.90;;;;;;5031968;28;20057;-67
2023/09/18 02:26:33;;;;;;;28.70;21.85;;;16.10;99.90;;;;;;5031099;28;20503;-67
2023/09/18 02:29:00;;;;;;;31.80;23.92;;;16.30;99.90;;;;;;5032637;28;20573;-67
2023/09/18 02:31:27;;;;;;;30.55;24.02;;;16.20;99.90;;;;;;5014452;28;20042;-67
2023/09/18 02:33:52;;;;;;;32.88;24.60;;;16.40;99.90;;;;;;5032021;28;20041;-67
2023/09/18 02:36:18;;;;;;;32.83;24.63;;;16.30;99.90;;;;;;5031757;28;20053;-68
2023/09/18 02:38:44;;;;;;;35.35;26.25;;;16.30;99.90;;;;;;5030958;28;20052;-67
2023/09/18 02:41:10;;;;;;;31.13;24.58;;;16.30;99.90;;;;;;5031764;28;20120;-67
2023/09/18 02:43:37;;;;;;;31.02;24.55;;;16.30;99.90;;;;;;5031357;28;20129;-67
2023/09/18 02:46:05;;;;;;;33.03;26.08;;;16.50;99.90;;;;;;5031230;28;20045;-67
2023/09/18 02:48:31;;;;;;;30.67;24.38;;;16.40;99.90;;;;;;5031557;28;20102;-67
2023/09/18 02:51:01;;;;;;;32.50;24.85;;;16.40;99.90;;;;;;5031859;28;20076;-67
2023/09/18 02:53:26;;;;;;;31.02;23.88;;;16.50;99.90;;;;;;5032073;28;20060;-68
2023/09/18 02:55:55;;;;;;;34.05;25.05;;;16.30;99.90;;;;;;5031662;28;20589;-68
2023/09/18 02:58:22;;;;;;;29.35;22.58;;;16.50;99.90;;;;;;5031310;28;20045;-67
2023/09/18 03:00:50;;;;;;;33.65;24.55;;;16.30;99.90;;;;;;5033865;28;20065;-68
2023/09/18 03:03:16;;;;;;;30.17;23.75;;;16.40;99.90;;;;;;5034300;28;20517;-68
2023/09/18 03:05:43;;;;;;;29.92;22.80;;;16.50;99.90;;;;;;5034420;28;20049;-68
2023/09/18 03:08:09;;;;;;;35.97;26.10;;;16.50;99.90;;;;;;5033576;28;20036;-67
2023/09/18 03:10:37;;;;;;;28.80;23.58;;;16.50;99.90;;;;;;5034497;28;20037;-67
2023/09/18 03:13:03;;;;;;;29.70;24.65;;;16.50;99.90;;;;;;5018172;28;20037;-67
2023/09/18 03:15:30;;;;;;;30.85;25.50;;;16.40;99.90;;;;;;5032902;28;20037;-67
2023/09/18 03:17:57;;;;;;;34.92;24.50;;;16.50;99.90;;;;;;5035012;28;20060;-67
2023/09/18 03:20:27;;;;;;;36.20;25.98;;;16.60;99.90;;;;;;5034356;28;20056;-68
2023/09/18 03:22:56;;;;;;;31.50;26.20;;;16.60;99.90;;;;;;5033873;28;20561;-67
2023/09/18 03:25:22;;;;;;;35.90;25.17;;;16.50;99.90;;;;;;5034493;28;20033;-68
2023/09/18 03:27:48;;;;;;;34.65;27.02;;;16.50;99.90;;;;;;5051097;28;20037;-67
2023/09/18 03:30:15;;;;;;;33.25;26.65;;;16.50;99.90;;;;;;5034173;28;20029;-67
2023/09/18 03:32:45;;;;;;;32.67;25.42;;;16.40;99.90;;;;;;5033782;28;20053;-67
2023/09/18 03:35:17;;;;;;;36.60;28.08;;;16.60;99.90;;;;;;5033322;28;20051;-67
2023/09/18 03:37:52;;;;;;;34.65;28.50;;;16.60;99.90;;;;;;5034063;28;20049;-67
2023/09/18 03:40:18;;;;;;;37.35;29.67;;;16.60;99.90;;;;;;5051935;28;20070;-68
2023/09/18 03:42:45;;;;;;;42.75;30.23;;;16.70;99.90;;;;;;5033334;28;20497;-67
2023/09/18 03:45:12;;;;;;;43.22;32.90;;;16.50;99.90;;;;;;5017318;28;20072;-67
2023/09/18 03:47:39;;;;;;;42.45;32.20;;;16.50;99.90;;;;;;5033960;28;20056;-67
2023/09/18 03:50:09;;;;;;;46.40;31.80;;;16.60;99.90;;;;;;5017183;28;20044;-67
2023/09/18 03:52:35;;;;;;;43.15;32.95;;;16.70;99.90;;;;;;5017325;28;20070;-67
2023/09/18 03:55:01;;;;;;;43.70;33.75;;;16.60;99.90;;;;;;5017945;28;20045;-68
2023/09/18 03:57:27;;;;;;;39.92;30.45;;;16.70;99.90;;;;;;5033027;28;20398;-67
2023/09/18 03:59:53;;;;;;;41.70;34.00;;;16.70;99.90;;;;;;5051569;28;20044;-67
2023/09/18 04:02:18;;;;;;;39.80;31.98;;;16.60;99.90;;;;;;5033785;28;20167;-67
2023/09/18 04:04:44;;;;;;;38.72;31.80;;;16.80;99.90;;;;;;5050720;28;20040;-67
2023/09/18 04:07:11;;;;;;;40.08;32.97;;;16.60;99.90;;;;;;5033588;28;20048;-67
2023/09/18 04:09:37;;;;;;;41.65;33.38;;;16.70;99.90;;;;;;5034093;28;20103;-67
2023/09/18 04:12:07;;;;;;;39.00;30.63;;;16.80;99.90;;;;;;5033196;28;20099;-67
2023/09/18 04:14:33;;;;;;;39.72;31.13;;;16.90;99.90;;;;;;5033527;28;20045;-67
2023/09/18 04:17:00;;;;;;;38.10;30.77;;;16.70;99.90;;;;;;5033234;28;20043;-68
2023/09/18 04:19:26;;;;;;;37.13;30.02;;;16.70;99.90;;;;;;5033843;28;20084;-67
2023/09/18 04:21:52;;;;;;;36.25;29.23;;;16.70;99.90;;;;;;5033505;28;20116;-68
2023/09/18 04:24:18;;;;;;;34.47;28.77;;;16.90;99.90;;;;;;5032810;28;20123;-68
2023/09/18 04:26:43;;;;;;;41.35;30.23;;;16.90;99.90;;;;;;5033397;28;20496;-68
2023/09/18 04:29:09;;;;;;;32.30;26.65;;;16.90;99.90;;;;;;5016553;28;20121;-68
2023/09/18 04:31:35;;;;;;;37.60;29.52;;;16.80;99.90;;;;;;5032743;28;20037;-68
2023/09/18 04:34:02;;;;;;;36.08;27.83;;;16.90;99.90;;;;;;5033281;28;20401;-67
2023/09/18 04:36:27;;;;;;;35.30;28.35;;;16.80;99.90;;;;;;5033026;28;20085;-69
2023/09/18 04:38:53;;;;;;;32.30;25.67;;;16.90;99.90;;;;;;5032700;28;20191;-68
2023/09/18 04:41:19;;;;;;;34.85;25.85;;;17.10;99.90;;;;;;5033744;28;20045;-68
2023/09/18 04:43:45;;;;;;;31.60;24.25;;;17.10;99.90;;;;;;5034641;28;20478;-68
2023/09/18 04:46:11;;;;;;;31.00;25.17;;;16.90;99.90;;;;;;5036166;28;20037;-68
2023/09/18 04:48:37;;;;;;;27.90;22.85;;;17.10;99.90;;;;;;5037088;28;20083;-67
2023/09/18 04:51:03;;;;;;;31.05;23.67;;;17.00;99.90;;;;;;5037463;28;20040;-68
2023/09/18 04:53:30;;;;;;;27.17;23.10;;;17.10;99.90;;;;;;5035918;28;20045;-68
2023/09/18 04:55:56;;;;;;;27.50;24.42;;;17.20;99.90;;;;;;5037253;28;20062;-68
2023/09/18 04:58:22;;;;;;;28.40;21.75;;;17.00;99.90;;;;;;5054890;28;20041;-68
2023/09/18 05:00:58;;;;;;;29.30;23.08;;;17.20;99.90;;;;;;5032776;28;20533;-68
2023/09/18 05:03:26;;;;;;;28.80;21.85;;;17.20;99.90;;;;;;5033413;28;20101;-68
2023/09/18 05:05:52;;;;;;;28.00;23.10;;;17.20;99.90;;;;;;5017256;28;20117;-68
2023/09/18 05:08:19;;;;;;;28.55;23.17;;;17.10;99.90;;;;;;5032645;28;20538;-68
2023/09/18 05:10:45;;;;;;;28.80;21.88;;;17.20;99.90;;;;;;5033448;28;20073;-68
2023/09/18 05:13:11;;;;;;;26.85;22.27;;;17.30;99.90;;;;;;5032561;28;20049;-67
2023/09/18 05:15:37;;;;;;;32.65;23.63;;;17.20;99.90;;;;;;5033379;28;20076;-68
2023/09/18 05:18:03;;;;;;;27.48;24.02;;;17.20;99.90;;;;;;5033350;28;20046;-67
2023/09/18 05:20:30;;;;;;;25.83;23.10;;;17.20;99.90;;;;;;5033512;28;20470;-68
2023/09/18 05:22:57;;;;;;;33.85;23.45;;;17.20;99.90;;;;;;5017163;28;20441;-68
2023/09/18 05:25:25;;;;;;;28.35;22.67;;;17.10;99.90;;;;;;5033032;28;20045;-68
2023/09/18 05:27:56;;;;;;;27.13;21.13;;;17.10;99.90;;;;;;5033641;28;20033;-68
2023/09/18 05:30:32;;;;;;;26.77;21.65;;;17.20;99.90;;;;;;5034253;28;20423;-68
2023/09/18 05:33:04;;;;;;;27.30;20.30;;;17.10;99.90;;;;;;5033534;28;20502;-68
2023/09/18 05:35:35;;;;;;;26.42;20.23;;;17.20;99.90;;;;;;5032231;28;20115;-68
2023/09/18 05:38:00;;;;;;;24.38;20.42;;;17.20;99.90;;;;;;5033026;28;20041;-68
2023/09/18 05:40:29;;;;;;;26.02;20.75;;;17.10;99.90;;;;;;5033161;28;20136;-68
2023/09/18 05:42:56;;;;;;;23.33;19.25;;;17.10;99.90;;;;;;5033529;28;20047;-68
2023/09/18 05:45:22;;;;;;;23.75;19.92;;;17.20;99.90;;;;;;5032966;28;20466;-68
2023/09/18 05:47:49;;;;;;;24.38;20.75;;;17.30;99.90;;;;;;5016200;28;20053;-68
2023/09/18 05:50:16;;;;;;;26.20;20.50;;;17.40;99.90;;;;;;5032029;28;20509;-67
2023/09/18 05:52:45;;;;;;;22.58;18.30;;;17.10;99.90;;;;;;5033613;28;20033;-67
2023/09/18 05:55:12;;;;;;;26.13;18.88;;;17.40;99.90;;;;;;5032530;28;20092;-68
2023/09/18 05:57:38;;;;;;;22.20;17.90;;;17.50;99.90;;;;;;5031843;28;20057;-68
2023/09/18 06:00:05;;;;;;;20.70;16.77;;;17.30;99.90;;;;;;5035310;28;20069;-68
2023/09/18 06:02:30;;;;;;;19.60;17.30;;;17.50;99.90;;;;;;5035057;28;20045;-68
2023/09/18 06:04:59;;;;;;;24.92;16.73;;;17.50;99.90;;;;;;5035741;28;20040;-68
2023/09/18 06:07:26;;;;;;;22.52;17.20;;;17.50;99.90;;;;;;5035470;28;20087;-68
2023/09/18 06:09:53;;;;;;;23.00;17.13;;;17.70;99.90;;;;;;5018197;28;20103;-68
2023/09/18 06:12:18;;;;;;;19.55;16.23;;;17.70;99.90;;;;;;5019077;28;20044;-68
2023/09/18 06:14:46;;;;;;;17.40;14.70;;;17.60;99.90;;;;;;5035860;28;20049;-68
2023/09/18 06:17:12;;;;;;;17.88;15.43;;;17.70;99.90;;;;;;5052740;28;20041;-68
2023/09/18 06:19:38;;;;;;;21.50;15.48;;;17.70;99.90;;;;;;5035541;28;20489;-68
2023/09/18 06:22:04;;;;;;;16.75;14.88;;;17.70;99.90;;;;;;5035766;28;20047;-68
2023/09/18 06:24:30;;;;;;;21.15;15.43;;;17.70;99.90;;;;;;5034538;28;20037;-68
2023/09/18 06:26:55;;;;;;;21.15;16.50;;;17.90;99.90;;;;;;5053198;28;20037;-68
2023/09/18 06:29:21;;;;;;;22.52;15.77;;;17.90;99.90;;;;;;5017969;28;20066;-68
2023/09/18 06:31:47;;;;;;;23.65;16.73;;;17.90;99.90;;;;;;5034743;28;20044;-68
2023/09/18 06:34:13;;;;;;;18.33;15.70;;;17.80;99.90;;;;;;5035379;28;20045;-68
2023/09/18 06:36:38;;;;;;;21.98;17.45;;;17.90;99.90;;;;;;5040517;28;20049;-68
2023/09/18 06:39:04;;;;;;;22.38;17.38;;;18.10;99.90;;;;;;5054396;28;20042;-68
2023/09/18 06:41:30;;;;;;;26.02;17.75;;;18.00;99.90;;;;;;5054520;28;20048;-68
2023/09/18 06:43:56;;;;;;;20.38;15.65;;;18.00;99.90;;;;;;5055275;28;20084;-68
2023/09/18 06:46:22;;;;;;;21.35;16.58;;;18.00;99.90;;;;;;5049036;28;20045;-68
2023/09/18 06:48:50;;;;;;;21.75;17.55;;;18.10;99.90;;;;;;5052917;28;20033;-68
2023/09/18 06:51:16;;;;;;;19.73;16.05;;;18.10;99.90;;;;;;5051772;28;20076;-68
2023/09/18 06:53:43;;;;;;;20.45;17.17;;;18.00;99.90;;;;;;5034020;28;20465;-68
2023/09/18 06:56:09;;;;;;;19.90;16.70;;;18.20;99.90;;;;;;5051514;28;20052;-68
2023/09/18 06:58:35;;;;;;;23.33;17.52;;;18.20;99.90;;;;;;5051304;28;20044;-68
2023/09/18 07:01:01;;;;;;;24.92;17.90;;;18.10;99.90;;;;;;5034064;28;20048;-69
2023/09/18 07:03:27;;;;;;;24.83;18.15;;;18.00;99.90;;;;;;5048956;28;20786;-68
2023/09/18 07:05:53;;;;;;;23.17;18.45;;;18.10;99.90;;;;;;5031758;28;20033;-69
2023/09/18 07:08:22;;;;;;;24.15;18.17;;;18.10;99.90;;;;;;5033929;28;20037;-70
2023/09/18 07:10:50;;;;;;;22.13;17.60;;;18.20;99.90;;;;;;5018237;28;20526;-70
2023/09/18 07:13:16;;;;;;;25.90;18.85;;;18.30;99.90;;;;;;5013898;28;20049;-71
2023/09/18 07:15:41;;;;;;;28.08;18.95;;;18.10;99.90;;;;;;5031382;28;20487;-72
2023/09/18 07:18:07;;;;;;;23.17;18.73;;;18.10;99.90;;;;;;5030101;28;20112;-72
2023/09/18 07:20:33;;;;;;;23.23;18.55;;;18.20;99.90;;;;;;5030479;28;20453;-72
2023/09/18 07:22:59;;;;;;;20.95;16.35;;;18.10;99.90;;;;;;5048986;28;20119;-73
2023/09/18 07:25:24;;;;;;;22.70;15.88;;;18.10;99.90;;;;;;5030606;28;20167;-72
2023/09/18 07:27:50;;;;;;;23.50;17.65;;;18.10;99.90;;;;;;5048568;28;20037;-72
2023/09/18 07:30:16;;;;;;;22.85;16.33;;;18.20;99.90;;;;;;5026834;28;20539;-72
2023/09/18 07:32:42;;;;;;;23.58;17.15;;;18.00;99.90;;;;;;5030940;28;20051;-72
2023/09/18 07:35:09;;;;;;;21.17;15.20;;;18.10;99.90;;;;;;5028746;28;20103;-72
2023/09/18 07:37:35;;;;;;;24.38;18.23;;;18.00;99.90;;;;;;5031925;28;20037;-72
2023/09/18 07:40:08;;;;;;;23.05;16.70;;;18.10;99.90;;;;;;5030576;28;20135;-72
2023/09/18 07:42:33;;;;;;;17.77;14.75;;;17.90;99.90;;;;;;5014795;28;20056;-72
2023/09/18 07:44:59;;;;;;;19.48;14.20;;;18.10;99.90;;;;;;5019872;28;20041;-72
2023/09/18 07:47:26;;;;;;;18.55;11.98;;;18.00;99.90;;;;;;5047905;28;20910;-72
2023/09/18 07:49:51;;;;;;;15.77;11.35;;;18.10;99.90;;;;;;5048563;28;20037;-71
2023/09/18 07:52:17;;;;;;;14.18;9.32;;;17.90;99.90;;;;;;5047127;28;20094;-70
2023/09/18 07:54:43;;;;;;;13.43;9.15;;;18.00;99.90;;;;;;5012034;28;20041;-70
2023/09/18 07:57:09;;;;;;;12.07;7.47;;;18.00;99.90;;;;;;5010115;28;20099;-70
2023/09/18 07:59:36;;;;;;;11.07;6.20;;;18.10;99.90;;;;;;5031377;28;20045;-70
2023/09/18 08:02:02;;;;;;;10.68;5.82;;;17.90;99.90;;;;;;5034530;28;20410;-69
2023/09/18 08:04:30;;;;;;;11.65;6.30;;;17.90;99.90;;;;;;5031233;28;20118;-69
2023/09/18 08:06:56;;;;;;;11.48;6.70;;;18.00;99.90;;;;;;5031795;28;20051;-69
2023/09/18 08:09:22;;;;;;;9.30;5.68;;;18.00;99.90;;;;;;5014433;28;20041;-69
2023/09/18 08:11:49;;;;;;;12.32;5.88;;;18.00;99.90;;;;;;5031745;28;20383;-69
2023/09/18 08:14:16;;;;;;;9.00;5.53;;;17.90;99.90;;;;;;5030885;28;20115;-69
2023/09/18 08:16:42;;;;;;;8.93;5.28;;;18.10;99.90;;;;;;5029895;28;20136;-69
2023/09/18 08:19:09;;;;;;;9.93;4.93;;;17.90;99.90;;;;;;5034679;28;20055;-69
2023/09/18 08:21:35;;;;;;;8.43;4.47;;;17.90;99.90;;;;;;5028602;28;20128;-69
2023/09/18 08:24:00;;;;;;;9.00;4.40;;;18.10;99.90;;;;;;5032496;28;20041;-69
2023/09/18 08:26:28;;;;;;;7.07;4.13;;;17.90;99.90;;;;;;5047882;28;20426;-69
2023/09/18 08:28:54;;;;;;;9.60;4.07;;;18.10;99.90;;;;;;5051303;28;20091;-66
2023/09/18 08:31:20;;;;;;;12.00;4.90;;;18.10;99.90;;;;;;5034150;28;20039;-68
2023/09/18 08:33:45;;;;;;;11.52;5.30;;;18.00;99.90;;;;;;5020366;28;20402;-67
2023/09/18 08:36:11;;;;;;;11.07;5.53;;;17.90;99.90;;;;;;5046441;28;20033;-67
2023/09/18 08:38:37;;;;;;;8.23;4.88;;;18.20;99.90;;;;;;5052168;28;20107;-67
2023/09/18 08:41:03;;;;;;;10.60;5.43;;;18.20;99.90;;;;;;5029716;28;20048;-68
2023/09/18 08:43:31;;;;;;;8.48;5.13;;;18.10;99.90;;;;;;5028512;28;20080;-67
2023/09/18 09:17:21;;;;;;;15.55;8.32;;;18.80;99.90;;;;;;5051274;28;20168;-67
2023/09/18 09:19:47;;;;;;;11.90;8.80;;;19.00;99.90;;;;;;5035931;28;20486;-67
2023/09/18 09:22:20;;;;;;;11.55;8.75;;;18.90;99.90;;;;;;5036026;28;20078;-67
2023/09/18 09:24:46;;;;;;;14.27;8.43;;;19.00;99.90;;;;;;5031699;28;20478;-67
2023/09/18 09:27:14;;;;;;;12.20;8.43;;;18.90;99.90;;;;;;5032145;28;20041;-67
2023/09/18 09:29:40;;;;;;;12.57;8.57;;;19.10;99.90;;;;;;5032252;28;20045;-67
2023/09/18 09:32:17;;;;;;;15.27;8.73;;;19.00;99.90;;;;;;5028641;28;20040;-67
2023/09/18 09:34:44;;;;;;;14.57;9.60;;;19.10;99.90;;;;;;5035495;28;20041;-67
2023/09/18 09:37:10;;;;;;;14.27;9.13;;;19.20;99.90;;;;;;5036436;28;20033;-66
2023/09/18 09:39:52;;;;;;;13.52;9.73;;;19.30;99.90;;;;;;5036247;28;20399;-67
2023/09/18 09:42:24;;;;;;;14.57;10.32;;;19.40;99.90;;;;;;5035941;28;20119;-67
2023/09/18 09:45:05;;;;;;;12.50;9.82;;;19.40;99.90;;;;;;5036269;28;20069;-67
2023/09/18 09:47:37;;;;;;;14.00;9.82;;;19.40;99.90;;;;;;5008822;28;20422;-67
2023/09/18 09:50:07;;;;;;;17.38;11.45;;;19.40;99.90;;;;;;5033441;28;20062;-67
2023/09/18 09:52:33;;;;;;;12.70;10.20;;;19.20;99.90;;;;;;5032305;28;20452;-67
2023/09/18 09:54:59;;;;;;;13.35;10.38;;;19.30;99.90;;;;;;5021914;28;20120;-67
2023/09/18 09:57:25;;;;;;;14.40;10.07;;;19.30;99.90;;;;;;5029711;28;20053;-68
2023/09/18 09:59:51;;;;;;;14.93;11.30;;;19.40;99.90;;;;;;5016028;28;20387;-67
2023/09/18 10:02:22;;;;;;;15.40;11.45;;;19.40;99.90;;;;;;5014841;28;20045;-67
2023/09/18 10:04:49;;;;;;;16.98;10.90;;;19.50;99.90;;;;;;5028916;28;20048;-68
2023/09/18 10:07:17;;;;;;;16.38;11.13;;;19.50;99.90;;;;;;5026929;28;20041;-67
2023/09/18 10:09:43;;;;;;;14.27;10.88;;;19.50;99.90;;;;;;5016670;28;20063;-67
2023/09/18 10:12:20;;;;;;;18.55;11.68;;;19.50;99.90;;;;;;5028017;28;20043;-67
2023/09/18 10:14:48;;;;;;;15.23;12.15;;;19.70;99.90;;;;;;5027071;28;20033;-67
2023/09/18 10:17:19;;;;;;;16.33;12.05;;;19.80;99.90;;;;;;5031275;28;20136;-67
2023/09/18 10:20:08;;;;;;;17.02;12.15;;;19.90;99.90;;;;;;5030220;28;20037;-67
2023/09/18 10:22:39;;;;;;;14.52;11.55;;;19.80;99.90;;;;;;5022811;28;20466;-67
2023/09/18 10:25:18;;;;;;;16.50;12.32;;;19.80;99.90;;;;;;5016479;28;20447;-67
2023/09/18 10:27:49;;;;;;;19.38;14.40;;;19.80;99.90;;;;;;5032039;28;20040;-67
2023/09/18 10:30:19;;;;;;;18.75;13.70;;;20.00;99.90;;;;;;5030413;28;20124;-67
2023/09/18 10:32:46;;;;;;;17.48;14.32;;;20.10;99.90;;;;;;5031653;28;20044;-66
2023/09/18 10:35:12;;;;;;;15.45;12.85;;;20.20;99.90;;;;;;5030868;28;20052;-67
2023/09/18 10:37:38;;;;;;;15.13;12.88;;;20.30;99.90;;;;;;5014566;28;20045;-66
2023/09/18 10:40:08;;;;;;;14.90;12.30;;;20.30;99.90;;;;;;5031019;28;20045;-66
2023/09/18 10:42:37;;;;;;;16.50;11.35;;;20.20;99.90;;;;;;5029094;28;20506;-63
2023/09/18 10:45:04;;;;;;;12.70;10.68;;;20.30;99.90;;;;;;5030098;28;20457;-65
2023/09/18 10:47:31;;;;;;;14.95;11.52;;;20.40;99.90;;;;;;5029606;28;20478;-65
2023/09/18 10:49:58;;;;;;;12.45;10.15;;;20.40;99.90;;;;;;5030122;28;20060;-65
2023/09/18 10:52:25;;;;;;;10.85;9.60;;;20.60;99.90;;;;;;5012745;28;20043;-66
2023/09/18 10:54:51;;;;;;;10.93;9.48;;;20.80;99.90;;;;;;5031024;28;20701;-66
2023/09/18 10:57:17;;;;;;;11.80;9.52;;;20.80;99.90;;;;;;5030893;28;20041;-66
2023/09/18 10:59:46;;;;;;;12.02;10.45;;;20.80;99.90;;;;;;5030745;28;20049;-65
2023/09/18 11:02:17;;;;;;;13.43;9.65;;;20.90;99.90;;;;;;5031323;28;20038;-65
2023/09/18 11:04:44;;;;;;;11.80;9.00;;;20.90;99.90;;;;;;5031572;28;20461;-65
2023/09/18 11:07:22;;;;;;;10.98;8.95;;;21.00;99.90;;;;;;5030572;28;20079;-65
2023/09/18 11:09:48;;;;;;;9.88;7.90;;;21.00;99.90;;;;;;5031768;28;20399;-65
2023/09/18 11:12:17;;;;;;;11.20;8.40;;;21.10;99.90;;;;;;5030867;28;20479;-65
2023/09/18 11:14:57;;;;;;;10.85;8.23;;;21.20;99.90;;;;;;5031099;28;20092;-65
2023/09/18 11:17:39;;;;;;;10.13;6.60;;;21.30;99.90;;;;;;5017837;28;20061;-65
2023/09/18 11:20:11;;;;;;;10.52;6.82;;;21.20;99.90;;;;;;5017543;28;20041;-64
2023/09/18 11:22:46;;;;;;;10.38;7.32;;;21.20;99.90;;;;;;5034555;28;20041;-65
2023/09/18 11:25:41;;;;;;;12.90;8.00;;;21.10;99.90;;;;;;5034579;28;20044;-64
2023/09/18 11:28:17;;;;;;;10.88;6.65;;;21.00;99.90;;;;;;5032317;28;20459;-64
2023/09/18 11:30:50;;;;;;;8.07;6.07;;;20.90;99.90;;;;;;5034630;28;20033;-64
2023/09/18 11:33:36;;;;;;;8.77;6.43;;;20.90;99.90;;;;;;5017000;28;20847;-64
2023/09/18 11:36:14;;;;;;;8.52;5.53;;;20.90;99.90;;;;;;5034544;28;20049;-64
2023/09/18 11:39:03;;;;;;;9.13;4.88;;;21.00;99.90;;;;;;5034335;28;20079;-64
2023/09/18 11:41:38;;;;;;;8.30;5.00;;;21.20;99.90;;;;;;5033150;28;20051;-64
2023/09/18 11:44:25;;;;;;;8.32;4.30;;;21.30;99.90;;;;;;5034368;28;20045;-64
2023/09/18 11:46:52;;;;;;;7.75;4.35;;;21.20;99.90;;;;;;5017671;28;20048;-64
2023/09/18 11:49:21;;;;;;;6.93;3.90;;;21.20;99.90;;;;;;5033235;28;20087;-64
2023/09/18 11:51:47;;;;;;;6.65;4.65;;;21.00;99.90;;;;;;5034157;28;20049;-64
2023/09/18 11:54:15;;;;;;;8.95;4.35;;;20.90;99.90;;;;;;5030489;28;20530;-64
2023/09/18 11:56:41;;;;;;;6.20;3.53;;;20.90;99.90;;;;;;4997853;28;20056;-64
2023/09/18 11:59:08;;;;;;;9.18;4.78;;;21.00;99.90;;;;;;5047858;28;20170;-64
2023/09/18 12:01:39;;;;;;;8.50;4.47;;;21.10;99.90;;;;;;5013739;28;20045;-64
2023/09/18 12:04:09;;;;;;;6.38;4.70;;;21.20;99.90;;;;;;5014603;28;20055;-63
2023/09/18 12:06:35;;;;;;;9.02;5.10;;;21.30;99.90;;;;;;5014258;28;20037;-65
2023/09/18 12:09:03;;;;;;;9.68;5.00;;;21.30;99.90;;;;;;5013811;28;20125;-64
2023/09/18 12:11:29;;;;;;;6.78;4.68;;;21.40;99.90;;;;;;5014008;28;20037;-65
2023/09/18 12:13:55;;;;;;;8.70;5.47;;;21.50;99.90;;;;;;5014370;28;20537;-64
2023/09/18 12:16:21;;;;;;;11.13;5.82;;;21.70;99.90;;;;;;5013442;28;20049;-64
2023/09/18 12:18:48;;;;;;;7.55;4.95;;;21.80;99.90;;;;;;5046920;28;20092;-64
2023/09/18 12:21:15;;;;;;;9.80;5.30;;;21.80;99.90;;;;;;5047509;28;20051;-64
2023/09/18 12:23:45;;;;;;;9.80;5.55;;;21.80;99.90;;;;;;5010205;28;20094;-65
2023/09/18 12:26:14;;;;;;;8.00;5.10;;;21.80;99.90;;;;;;5033679;28;20045;-64
2023/09/18 12:28:41;;;;;;;8.82;5.40;;;21.80;99.90;;;;;;5015080;28;20479;-64
2023/09/18 12:31:10;;;;;;;8.07;5.45;;;21.70;99.90;;;;;;5035540;28;20483;-64
2023/09/18 12:33:37;;;;;;;7.75;5.18;;;21.70;99.90;;;;;;5026954;28;20053;-65
2023/09/18 12:36:04;;;;;;;7.40;4.85;;;21.70;99.90;;;;;;4994797;28;20050;-65
2023/09/18 12:38:31;;;;;;;8.65;4.78;;;21.70;99.90;;;;;;5026404;28;20046;-65
2023/09/18 12:41:05;;;;;;;7.25;4.90;;;21.70;99.90;;;;;;4994976;28;20038;-64
2023/09/18 12:43:34;;;;;;;7.60;5.20;;;21.70;99.90;;;;;;5050169;28;20175;-65
2023/09/18 12:46:00;;;;;;;8.13;5.38;;;21.70;99.90;;;;;;5033745;28;20086;-65
2023/09/18 12:48:26;;;;;;;8.25;5.72;;;21.60;99.90;;;;;;5031329;28;20056;-65
2023/09/18 12:50:55;;;;;;;9.43;5.10;;;21.60;99.90;;;;;;5012402;28;20525;-67
2023/09/18 12:53:24;;;;;;;9.10;5.43;;;21.70;99.90;;;;;;5013513;28;20124;-66
2023/09/18 12:55:50;;;;;;;7.38;4.82;;;21.80;99.90;;;;;;5038973;28;20033;-67
2023/09/18 12:58:19;;;;;;;9.32;4.80;;;21.90;99.90;;;;;;5012838;28;20128;-67
2023/09/18 13:00:50;;;;;;;9.27;5.03;;;22.00;99.90;;;;;;5013711;28;20068;-67
2023/09/18 13:03:15;;;;;;;8.40;4.18;;;22.00;99.90;;;;;;4997250;28;20041;-65
2023/09/18 13:05:41;;;;;;;7.72;5.15;;;22.00;99.90;;;;;;5048331;28;20551;-67